Time;durP1;ratioP1;P1;durP2;ratioP2;P2;SDS_P1;SDS_P2;PMS_P1;PMS_P2;Temp;Humidity;BMP_temperature;BMP_pressure;BME280_temperature;BME280_humidity;BME280_pressure;Samples;Min_cycle;Max_cycle;Signal;HPM_P1;HPM_P2
2024/01/16 00:00:23;;;;;;;;;;;2.00;99.90;;;;;;5021794;28;19913;-61
2024/01/16 00:02:48;;;;;;;;;;;1.90;99.90;;;;;;5022134;28;19953;-61
2024/01/16 00:05:14;;;;;;;;;;;1.90;99.90;;;;;;5022101;28;20004;-61
2024/01/16 00:07:39;;;;;;;;;;;1.90;99.90;;;;;;5004486;28;19913;-61
2024/01/16 00:10:08;;;;;;;;;;;1.90;99.90;;;;;;5021850;28;19913;-61
2024/01/16 00:12:33;;;;;;;;;;;1.90;99.90;;;;;;5022125;28;20602;-61
2024/01/16 00:14:59;;;;;;;;;;;2.00;99.90;;;;;;5004449;28;19913;-61
2024/01/16 00:17:24;;;;;;;;;;;1.90;99.90;;;;;;5021790;28;19913;-61
2024/01/16 00:19:50;;;;;;;;;;;1.90;99.90;;;;;;5019008;28;20561;-61
2024/01/16 00:22:15;;;;;;;;;;;1.90;99.90;;;;;;5021237;28;19913;-61
2024/01/16 00:24:41;;;;;;;;;;;1.90;99.90;;;;;;5022029;28;19913;-61
2024/01/16 00:27:06;;;;;;;;;;;1.90;99.90;;;;;;5022108;28;19921;-61
2024/01/16 00:29:32;;;;;;;;;;;1.90;99.90;;;;;;5021616;28;20492;-61
2024/01/16 00:31:57;;;;;;;;;;;1.90;99.90;;;;;;5021786;28;20288;-61
2024/01/16 00:34:23;;;;;;;;;;;1.90;99.90;;;;;;5021609;28;19909;-61
2024/01/16 00:36:49;;;;;;;;;;;1.90;99.90;;;;;;5021999;28;19997;-61
2024/01/16 00:39:14;;;;;;;;;;;1.90;99.90;;;;;;5021463;28;20655;-61
2024/01/16 00:41:39;;;;;;;;;;;1.90;99.90;;;;;;5021829;28;19913;-61
2024/01/16 00:44:05;;;;;;;;;;;1.90;99.90;;;;;;5021961;28;19917;-61
2024/01/16 00:46:30;;;;;;;;;;;1.90;99.90;;;;;;5021429;28;19914;-61
2024/01/16 00:48:56;;;;;;;;;;;1.90;99.90;;;;;;5024185;28;19913;-61
2024/01/16 00:51:21;;;;;;;;;;;1.90;99.90;;;;;;5024702;28;20535;-61
2024/01/16 00:53:47;;;;;;;;;;;1.90;99.90;;;;;;5024894;28;19971;-61
2024/01/16 00:56:12;;;;;;;;;;;1.90;99.90;;;;;;5024803;28;19913;-61
2024/01/16 00:58:38;;;;;;;;;;;1.90;99.90;;;;;;5024618;28;19913;-61
2024/01/16 01:01:04;;;;;;;;;;;1.90;99.90;;;;;;5024441;28;20032;-61
2024/01/16 01:03:29;;;;;;;;;;;1.90;99.90;;;;;;5024255;28;19963;-61
2024/01/16 01:05:55;;;;;;;;;;;1.90;99.90;;;;;;5024811;28;20331;-61
2024/01/16 01:08:21;;;;;;;;;;;1.90;99.90;;;;;;5024301;28;19995;-61
2024/01/16 01:10:47;;;;;;;;;;;1.90;99.90;;;;;;5024461;28;19909;-61
2024/01/16 01:13:12;;;;;;;;;;;1.90;99.90;;;;;;5024738;28;19960;-61
2024/01/16 01:15:38;;;;;;;;;;;1.90;99.90;;;;;;5018846;28;20365;-61
2024/01/16 01:18:03;;;;;;;;;;;1.90;99.90;;;;;;5023739;28;20031;-62
2024/01/16 01:20:29;;;;;;;;;;;1.90;99.90;;;;;;5005192;28;19913;-61
2024/01/16 01:22:55;;;;;;;;;;;1.90;99.90;;;;;;5023976;28;19933;-61
2024/01/16 01:25:21;;;;;;;;;;;1.90;99.90;;;;;;5023957;28;19913;-61
2024/01/16 01:27:47;;;;;;;;;;;1.90;99.90;;;;;;5023997;28;20361;-61
2024/01/16 01:30:12;;;;;;;;;;;1.90;99.90;;;;;;5005529;28;19993;-61
2024/01/16 01:32:38;;;;;;;;;;;1.90;99.90;;;;;;5024509;28;19920;-61
2024/01/16 01:35:05;;;;;;;;;;;1.90;99.90;;;;;;5024519;28;19917;-61
2024/01/16 01:37:30;;;;;;;;;;;1.90;99.90;;;;;;5024008;28;20015;-61
2024/01/16 01:39:56;;;;;;;;;;;1.90;99.90;;;;;;5024232;28;20008;-61
2024/01/16 01:42:21;;;;;;;;;;;1.90;99.90;;;;;;5023699;28;19913;-61
2024/01/16 01:44:47;;;;;;;;;;;1.90;99.90;;;;;;5024409;28;19913;-61
2024/01/16 01:47:13;;;;;;;;;;;1.80;99.90;;;;;;5024484;28;19917;-61
2024/01/16 01:49:38;;;;;;;;;;;1.90;99.90;;;;;;5027524;28;19952;-61
2024/01/16 01:52:04;;;;;;;;;;;1.90;99.90;;;;;;5023882;28;19924;-61
2024/01/16 01:54:31;;;;;;;;;;;1.90;99.90;;;;;;5023754;28;19917;-61
2024/01/16 01:56:56;;;;;;;;;;;1.90;99.90;;;;;;5024273;28;19909;-61
2024/01/16 01:59:23;;;;;;;;;;;1.90;99.90;;;;;;5023165;28;20385;-61
2024/01/16 02:01:49;;;;;;;;;;;1.90;99.90;;;;;;5006037;28;20320;-61
2024/01/16 02:04:16;;;;;;;;;;;1.90;99.90;;;;;;5023933;28;19924;-61
2024/01/16 02:06:44;;;;;;;;;;;1.90;99.90;;;;;;5023927;28;20576;-61
2024/01/16 02:09:10;;;;;;;;;;;1.90;99.90;;;;;;5023799;28;19920;-61
2024/01/16 02:11:35;;;;;;;;;;;1.90;99.90;;;;;;5023630;28;19917;-61
2024/01/16 02:14:01;;;;;;;;;;;1.80;99.90;;;;;;5023835;28;19935;-61
2024/01/16 02:16:26;;;;;;;;;;;1.90;99.90;;;;;;5023620;28;19913;-61
2024/01/16 02:18:52;;;;;;;;;;;1.80;99.90;;;;;;5020675;28;19913;-62
2024/01/16 02:21:20;;;;;;;;;;;1.80;99.90;;;;;;5023422;28;20004;-61
2024/01/16 02:23:46;;;;;;;;;;;1.80;99.90;;;;;;5023416;28;20370;-61
2024/01/16 02:26:12;;;;;;;;;;;1.90;99.90;;;;;;5023849;28;19920;-61
2024/01/16 02:28:37;;;;;;;;;;;1.80;99.90;;;;;;5022811;28;19913;-61
2024/01/16 02:31:03;;;;;;;;;;;1.80;99.90;;;;;;5023510;28;19916;-61
2024/01/16 02:33:28;;;;;;;;;;;1.80;99.90;;;;;;5023331;28;19914;-61
2024/01/16 02:35:54;;;;;;;;;;;1.90;99.90;;;;;;5023705;28;19940;-61
2024/01/16 02:38:20;;;;;;;;;;;1.80;99.90;;;;;;5023239;28;19913;-61
2024/01/16 02:40:45;;;;;;;;;;;1.80;99.90;;;;;;5038293;28;19913;-61
2024/01/16 02:43:11;;;;;;;;;;;1.80;99.90;;;;;;5023281;28;20032;-61
2024/01/16 02:45:37;;;;;;;;;;;1.80;99.90;;;;;;5023259;28;19914;-61
2024/01/16 02:48:03;;;;;;;;;;;1.80;99.90;;;;;;5023553;28;19913;-61
2024/01/16 02:50:28;;;;;;;;;;;1.90;99.90;;;;;;5005195;28;19913;-61
2024/01/16 02:52:54;;;;;;;;;;;1.80;99.90;;;;;;5023406;28;19925;-61
2024/01/16 02:55:19;;;;;;;;;;;1.80;99.90;;;;;;5023150;28;19921;-61
2024/01/16 02:57:45;;;;;;;;;;;1.80;99.90;;;;;;5023384;28;20426;-61
2024/01/16 03:00:11;;;;;;;;;;;1.80;99.90;;;;;;5023304;28;20003;-61
2024/01/16 03:02:36;;;;;;;;;;;1.80;99.90;;;;;;5022801;28;19963;-61
2024/01/16 03:05:03;;;;;;;;;;;1.80;99.90;;;;;;5023340;28;20416;-61
2024/01/16 03:07:29;;;;;;;;;;;1.90;99.90;;;;;;5023023;28;19968;-61
2024/01/16 03:09:54;;;;;;;;;;;1.80;99.90;;;;;;5022884;28;19917;-61
2024/01/16 03:12:20;;;;;;;;;;;1.80;99.90;;;;;;5021550;28;19936;-61
2024/01/16 03:14:45;;;;;;;;;;;1.80;99.90;;;;;;5038294;28;19913;-61
2024/01/16 03:17:11;;;;;;;;;;;1.80;99.90;;;;;;5023130;28;19924;-61
2024/01/16 03:19:36;;;;;;;;;;;1.80;99.90;;;;;;5019177;28;19917;-61
2024/01/16 03:22:03;;;;;;;;;;;1.80;99.90;;;;;;5022595;28;19970;-61
2024/01/16 03:24:29;;;;;;;;;;;1.90;99.90;;;;;;5022670;28;19914;-61
2024/01/16 03:26:54;;;;;;;;;;;1.80;99.90;;;;;;5022968;28;19970;-61
2024/01/16 03:29:20;;;;;;;;;;;1.90;99.90;;;;;;5022379;28;19927;-61
2024/01/16 03:31:45;;;;;;;;;;;1.90;99.90;;;;;;5022639;28;19913;-61
2024/01/16 03:34:11;;;;;;;;;;;1.90;99.90;;;;;;5004645;28;19963;-61
2024/01/16 03:36:37;;;;;;;;;;;1.80;99.90;;;;;;5022695;28;19956;-61
2024/01/16 03:39:02;;;;;;;;;;;1.80;99.90;;;;;;5022539;28;19913;-61
2024/01/16 03:41:28;;;;;;;;;;;1.90;99.90;;;;;;5022130;28;19986;-61
2024/01/16 03:43:56;;;;;;;;;;;1.90;99.90;;;;;;5022564;28;20732;-61
2024/01/16 03:46:22;;;;;;;;;;;1.90;99.90;;;;;;5021221;28;20581;-61
2024/01/16 03:48:48;;;;;;;;;;;1.90;99.90;;;;;;5015459;28;19929;-61
2024/01/16 03:51:17;;;;;;;;;;;1.90;99.90;;;;;;5022099;28;19920;-61
2024/01/16 03:53:43;;;;;;;;;;;1.90;99.90;;;;;;5025446;28;19921;-61
2024/01/16 03:56:08;;;;;;;;;;;1.90;99.90;;;;;;5022343;28;20775;-61
2024/01/16 03:58:34;;;;;;;;;;;1.90;99.90;;;;;;5021775;28;20361;-61
2024/01/16 04:00:59;;;;;;;;;;;1.90;99.90;;;;;;5022002;28;20692;-61
2024/01/16 04:03:25;;;;;;;;;;;1.90;99.90;;;;;;5021999;28;19917;-61
2024/01/16 04:05:50;;;;;;;;;;;1.80;99.90;;;;;;5004594;28;20364;-61
2024/01/16 04:08:16;;;;;;;;;;;1.80;99.90;;;;;;5021852;28;19927;-61
2024/01/16 04:10:42;;;;;;;;;;;1.80;99.90;;;;;;5022008;28;19909;-61
2024/01/16 04:13:07;;;;;;;;;;;1.90;99.90;;;;;;5004340;28;19934;-61
2024/01/16 04:15:33;;;;;;;;;;;1.90;99.90;;;;;;5003557;28;19914;-61
2024/01/16 04:17:59;;;;;;;;;;;1.90;99.90;;;;;;5020931;28;19909;-61
2024/01/16 04:20:24;;;;;;;;;;;1.90;99.90;;;;;;5019553;28;19928;-61
2024/01/16 04:22:50;;;;;;;;;;;1.90;99.90;;;;;;5022740;28;19971;-61
2024/01/16 04:25:15;;;;;;;;;;;1.90;99.90;;;;;;5025203;28;19909;-61
2024/01/16 04:27:41;;;;;;;;;;;1.80;99.90;;;;;;5025676;28;20469;-61
2024/01/16 04:30:07;;;;;;;;;;;1.80;99.90;;;;;;5024909;28;20554;-61
2024/01/16 04:32:33;;;;;;;;;;;1.90;99.90;;;;;;5025068;28;19935;-61
2024/01/16 04:34:58;;;;;;;;;;;1.90;99.90;;;;;;5025273;28;20362;-61
2024/01/16 04:37:24;;;;;;;;;;;1.80;99.90;;;;;;5024566;28;19920;-61
2024/01/16 04:39:49;;;;;;;;;;;1.80;99.90;;;;;;5024291;28;20009;-61
2024/01/16 04:42:17;;;;;;;;;;;1.80;99.90;;;;;;5024608;28;19913;-61
2024/01/16 04:44:43;;;;;;;;;;;1.80;99.90;;;;;;5017760;28;19913;-61
2024/01/16 04:47:09;;;;;;;;;;;1.90;99.90;;;;;;5025145;28;19916;-61
2024/01/16 04:49:34;;;;;;;;;;;1.80;99.90;;;;;;5024767;28;19917;-61
2024/01/16 04:52:00;;;;;;;;;;;1.80;99.90;;;;;;5025136;28;19913;-61
2024/01/16 04:54:25;;;;;;;;;;;1.80;99.90;;;;;;5024778;28;19913;-61
2024/01/16 04:56:51;;;;;;;;;;;1.80;99.90;;;;;;5040398;28;19914;-61
2024/01/16 04:59:16;;;;;;;;;;;1.80;99.90;;;;;;5007255;28;19909;-61
2024/01/16 05:01:42;;;;;;;;;;;1.80;99.90;;;;;;5024973;28;19913;-61
2024/01/16 05:04:08;;;;;;;;;;;1.90;99.90;;;;;;5025127;28;20032;-61
2024/01/16 05:06:34;;;;;;;;;;;1.90;99.90;;;;;;5024983;28;19913;-61
2024/01/16 05:09:00;;;;;;;;;;;1.80;99.90;;;;;;5025097;28;19917;-61
2024/01/16 05:11:25;;;;;;;;;;;1.80;99.90;;;;;;5024502;28;20383;-61
2024/01/16 05:13:57;;;;;;;;;;;1.90;99.90;;;;;;5024915;28;19935;-61
2024/01/16 05:16:23;;;;;;;;;;;1.80;99.90;;;;;;5024565;28;19913;-61
2024/01/16 05:18:49;;;;;;;;;;;1.80;99.90;;;;;;5021299;28;20326;-61
2024/01/16 05:21:14;;;;;;;;;;;1.80;99.90;;;;;;5024490;28;19973;-61
2024/01/16 05:23:40;;;;;;;;;;;1.90;99.90;;;;;;5024344;28;19924;-61
2024/01/16 05:26:05;;;;;;;;;;;1.80;99.90;;;;;;5006627;28;19936;-61
2024/01/16 05:28:31;;;;;;;;;;;1.80;99.90;;;;;;5024266;28;19967;-61
2024/01/16 05:30:56;;;;;;;;;;;1.80;99.90;;;;;;5024574;28;19913;-61
2024/01/16 05:33:23;;;;;;;;;;;1.80;99.90;;;;;;5023562;28;20151;-61
2024/01/16 05:35:49;;;;;;;;;;;1.80;99.90;;;;;;5023642;28;19940;-61
2024/01/16 05:38:15;;;;;;;;;;;1.80;99.90;;;;;;5024242;28;19913;-61
2024/01/16 05:40:41;;;;;;;;;;;1.80;99.90;;;;;;5023847;28;19920;-61
2024/01/16 05:43:07;;;;;;;;;;;1.80;99.90;;;;;;5006625;28;20282;-61
2024/01/16 05:45:32;;;;;;;;;;;1.80;99.90;;;;;;5024067;28;19920;-61
2024/01/16 05:47:58;;;;;;;;;;;1.80;99.90;;;;;;5005670;28;19932;-61
2024/01/16 05:50:23;;;;;;;;;;;1.80;99.90;;;;;;5027057;28;19913;-61
2024/01/16 05:52:49;;;;;;;;;;;1.80;99.90;;;;;;5024090;28;20234;-61
2024/01/16 05:55:14;;;;;;;;;;;1.90;99.90;;;;;;5023884;28;19917;-61
2024/01/16 05:57:40;;;;;;;;;;;1.80;99.90;;;;;;5023781;28;19956;-61
2024/01/16 06:00:06;;;;;;;;;;;1.90;99.90;;;;;;5023811;28;20253;-61
2024/01/16 06:02:32;;;;;;;;;;;1.90;99.90;;;;;;5022984;28;19920;-61
2024/01/16 06:04:57;;;;;;;;;;;1.80;99.90;;;;;;5023526;28;19993;-61
2024/01/16 06:07:23;;;;;;;;;;;1.90;99.90;;;;;;5023805;28;20019;-61
2024/01/16 06:09:48;;;;;;;;;;;1.80;99.90;;;;;;5023739;28;19913;-61
2024/01/16 06:12:14;;;;;;;;;;;1.80;99.90;;;;;;5023678;28;19920;-61
2024/01/16 06:14:39;;;;;;;;;;;1.80;99.90;;;;;;5023385;28;19914;-61
2024/01/16 06:17:06;;;;;;;;;;;1.80;99.90;;;;;;5005626;28;19945;-61
2024/01/16 06:19:32;;;;;;;;;;;1.80;99.90;;;;;;5011946;28;19919;-61
2024/01/16 06:21:58;;;;;;;;;;;1.80;99.90;;;;;;5038214;28;19974;-61
2024/01/16 06:24:23;;;;;;;;;;;1.80;99.90;;;;;;5004776;28;19917;-61
2024/01/16 06:26:49;;;;;;;;;;;1.80;99.90;;;;;;5024385;28;19920;-61
2024/01/16 06:29:14;;;;;;;;;;;1.80;99.90;;;;;;5023178;28;20624;-61
2024/01/16 06:31:40;;;;;;;;;;;1.80;99.90;;;;;;5022923;28;19913;-61
2024/01/16 06:34:05;;;;;;;;;;;1.90;99.90;;;;;;5023430;28;19916;-61
2024/01/16 06:36:31;;;;;;;;;;;1.80;99.90;;;;;;5005329;28;19917;-61
2024/01/16 06:38:57;;;;;;;;;;;1.90;99.90;;;;;;5022842;28;19992;-61
2024/01/16 06:41:22;;;;;;;;;;;1.80;99.90;;;;;;5022882;28;20296;-61
2024/01/16 06:43:48;;;;;;;;;;;1.80;99.90;;;;;;5023509;28;20029;-61
2024/01/16 06:46:13;;;;;;;;;;;1.90;99.90;;;;;;5023161;28;20365;-61
2024/01/16 06:48:39;;;;;;;;;;;1.80;99.90;;;;;;5023162;28;20608;-61
2024/01/16 06:51:04;;;;;;;;;;;1.80;99.90;;;;;;5022943;28;20383;-61
2024/01/16 06:53:30;;;;;;;;;;;1.80;99.90;;;;;;5022736;28;20699;-61
2024/01/16 06:55:56;;;;;;;;;;;1.80;99.90;;;;;;5023140;28;20409;-61
2024/01/16 06:58:21;;;;;;;;;;;1.80;99.90;;;;;;5022792;28;20020;-61
2024/01/16 07:00:47;;;;;;;;;;;1.80;99.90;;;;;;5023133;28;19913;-61
2024/01/16 07:03:13;;;;;;;;;;;1.80;99.90;;;;;;5022971;28;19917;-61
2024/01/16 07:05:40;;;;;;;;;;;1.80;99.90;;;;;;5022983;28;19913;-61
2024/01/16 07:08:06;;;;;;;;;;;1.80;99.90;;;;;;5023104;28;20610;-61
2024/01/16 07:10:32;;;;;;;;;;;1.80;99.90;;;;;;5022540;28;19944;-61
2024/01/16 07:12:57;;;;;;;;;;;1.80;99.90;;;;;;5023127;28;20558;-61
2024/01/16 07:15:23;;;;;;;;;;;1.80;99.90;;;;;;5022745;28;19913;-61
2024/01/16 07:17:48;;;;;;;;;;;1.80;99.90;;;;;;5023102;28;20643;-61
2024/01/16 07:20:14;;;;;;;;;;;1.80;99.90;;;;;;5019002;28;19918;-61
2024/01/16 07:22:39;;;;;;;;;;;1.80;99.90;;;;;;5037652;28;19935;-61
2024/01/16 07:25:05;;;;;;;;;;;1.80;99.90;;;;;;5022697;28;19913;-61
2024/01/16 07:27:31;;;;;;;;;;;1.80;99.90;;;;;;5022458;28;19913;-61
2024/01/16 07:29:56;;;;;;;;;;;1.80;99.90;;;;;;5022755;28;19945;-61
2024/01/16 07:32:22;;;;;;;;;;;1.80;99.90;;;;;;5022008;28;20295;-61
2024/01/16 07:34:47;;;;;;;;;;;1.80;99.90;;;;;;5022844;28;19921;-61
2024/01/16 07:37:13;;;;;;;;;;;1.80;99.90;;;;;;5022636;28;20007;-61
2024/01/16 07:39:39;;;;;;;;;;;1.80;99.90;;;;;;5022272;28;20601;-61
2024/01/16 07:42:05;;;;;;;;;;;1.80;99.90;;;;;;5022388;28;19920;-61
2024/01/16 07:44:30;;;;;;;;;;;1.80;99.90;;;;;;5022261;28;19917;-61
2024/01/16 07:46:56;;;;;;;;;;;1.80;99.90;;;;;;5022406;28;19920;-61
2024/01/16 07:49:21;;;;;;;;;;;1.80;99.90;;;;;;5023165;28;19916;-61
2024/01/16 07:51:47;;;;;;;;;;;1.80;99.90;;;;;;5029721;28;20415;-61
2024/01/16 07:54:13;;;;;;;;;;;1.80;99.90;;;;;;5022235;28;20069;-61
2024/01/16 07:56:39;;;;;;;;;;;1.80;99.90;;;;;;5021972;28;19918;-61
2024/01/16 07:59:04;;;;;;;;;;;1.80;99.90;;;;;;5021477;28;19917;-61
2024/01/16 08:01:30;;;;;;;;;;;1.80;99.90;;;;;;5021121;28;20414;-61
2024/01/16 08:03:56;;;;;;;;;;;1.80;99.90;;;;;;5022174;28;20338;-61
2024/01/16 08:06:22;;;;;;;;;;;1.80;99.90;;;;;;5003964;28;19936;-61
2024/01/16 08:08:48;;;;;;;;;;;1.80;99.90;;;;;;5021837;28;20278;-61
2024/01/16 08:11:14;;;;;;;;;;;1.80;99.90;;;;;;5021779;28;19920;-61
2024/01/16 08:13:39;;;;;;;;;;;1.80;99.90;;;;;;5036574;28;19917;-61
2024/01/16 08:16:05;;;;;;;;;;;1.80;99.90;;;;;;5021990;28;19913;-61
2024/01/16 08:18:33;;;;;;;;;;;1.80;99.90;;;;;;5021560;28;20270;-61
2024/01/16 08:20:59;;;;;;;;;;;1.80;99.90;;;;;;5021785;28;19919;-61
2024/01/16 08:23:24;;;;;;;;;;;1.80;99.90;;;;;;5021559;28;19969;-61
2024/01/16 08:25:51;;;;;;;;;;;1.80;99.90;;;;;;5022242;28;20024;-61
2024/01/16 08:28:17;;;;;;;;;;;1.90;99.90;;;;;;5021709;28;19935;-61
2024/01/16 08:30:43;;;;;;;;;;;1.80;99.90;;;;;;5021241;28;20349;-61
2024/01/16 08:33:08;;;;;;;;;;;1.80;99.90;;;;;;5021941;28;20011;-61
2024/01/16 08:35:34;;;;;;;;;;;1.80;99.90;;;;;;5021734;28;19932;-61
2024/01/16 08:37:59;;;;;;;;;;;1.90;99.90;;;;;;5021918;28;20353;-61
2024/01/16 08:40:25;;;;;;;;;;;1.90;99.90;;;;;;5036247;28;19971;-61
2024/01/16 08:42:54;;;;;;;;;;;1.90;99.90;;;;;;5021575;28;19920;-61
2024/01/16 08:45:20;;;;;;;;;;;1.90;99.90;;;;;;5021584;28;19913;-61
2024/01/16 08:47:46;;;;;;;;;;;1.90;99.90;;;;;;5021896;28;19920;-61
2024/01/16 08:50:12;;;;;;;;;;;1.90;99.90;;;;;;5021505;28;19913;-61
2024/01/16 08:52:37;;;;;;;;;;;1.90;99.90;;;;;;5036383;28;20357;-61
2024/01/16 08:55:03;;;;;;;;;;;1.90;99.90;;;;;;5021580;28;19913;-61
2024/01/16 08:57:29;;;;;;;;;;;1.90;99.90;;;;;;5021598;28;20418;-61
2024/01/16 08:59:55;;;;;;;;;;;1.90;99.90;;;;;;5021380;28;19986;-61
2024/01/16 09:02:21;;;;;;;;;;;1.90;99.90;;;;;;5020807;28;19913;-61
2024/01/16 09:04:47;;;;;;;;;;;1.90;99.90;;;;;;5021459;28;19921;-61
2024/01/16 09:07:15;;;;;;;;;;;1.90;99.90;;;;;;5021613;28;19940;-61
2024/01/16 09:09:42;;;;;;;;;;;1.90;99.90;;;;;;5021691;28;19913;-61
2024/01/16 09:12:08;;;;;;;;;;;1.90;99.90;;;;;;5025187;28;20366;-61
2024/01/16 09:14:34;;;;;;;;;;;1.90;99.90;;;;;;5024765;28;19962;-61
2024/01/16 09:16:59;;;;;;;;;;;1.90;99.90;;;;;;5025083;28;19940;-61
2024/01/16 09:19:25;;;;;;;;;;;1.90;99.90;;;;;;5024656;28;19920;-61
2024/01/16 09:21:50;;;;;;;;;;;1.90;99.90;;;;;;5024716;28;20318;-61
2024/01/16 09:24:16;;;;;;;;;;;1.90;99.90;;;;;;5024893;28;19917;-61
2024/01/16 09:26:41;;;;;;;;;;;2.00;99.90;;;;;;5024808;28;19913;-61
2024/01/16 09:29:08;;;;;;;;;;;2.00;99.90;;;;;;5024726;28;20463;-61
2024/01/16 09:31:35;;;;;;;;;;;2.00;99.90;;;;;;5024267;28;19913;-61
2024/01/16 09:34:01;;;;;;;;;;;2.00;99.90;;;;;;5024954;28;19924;-62
2024/01/16 09:36:26;;;;;;;;;;;2.00;99.90;;;;;;5023835;28;19909;-61
2024/01/16 09:38:52;;;;;;;;;;;2.00;99.90;;;;;;5024592;28;19913;-61
2024/01/16 09:41:18;;;;;;;;;;;2.00;99.90;;;;;;5024286;28;19966;-61
2024/01/16 09:43:44;;;;;;;;;;;2.00;99.90;;;;;;5024049;28;20490;-61
2024/01/16 09:46:10;;;;;;;;;;;2.00;99.90;;;;;;5024346;28;19914;-61
2024/01/16 09:48:36;;;;;;;;;;;2.00;99.90;;;;;;5023915;28;19920;-61
2024/01/16 09:51:01;;;;;;;;;;;2.10;99.90;;;;;;5029349;28;19908;-61
2024/01/16 09:53:27;;;;;;;;;;;2.10;99.90;;;;;;5026399;28;19913;-61
2024/01/16 09:55:54;;;;;;;;;;;2.10;99.90;;;;;;5024391;28;19920;-61
2024/01/16 09:58:20;;;;;;;;;;;2.10;99.90;;;;;;5024105;28;19913;-61
2024/01/16 10:00:46;;;;;;;;;;;2.10;99.90;;;;;;5023879;28;20235;-61
2024/01/16 10:03:13;;;;;;;;;;;2.10;99.90;;;;;;5023596;28;20313;-61
2024/01/16 10:05:39;;;;;;;;;;;2.10;99.90;;;;;;5023596;28;19947;-61
2024/01/16 10:08:05;;;;;;;;;;;2.20;99.90;;;;;;5023809;28;19913;-61
2024/01/16 10:10:30;;;;;;;;;;;2.20;99.90;;;;;;5023360;28;20365;-61
2024/01/16 10:12:56;;;;;;;;;;;2.20;99.90;;;;;;5023842;28;19913;-61
2024/01/16 10:15:22;;;;;;;;;;;2.20;99.90;;;;;;5023647;28;20338;-61
2024/01/16 10:17:47;;;;;;;;;;;2.20;99.90;;;;;;5005913;28;20246;-61
2024/01/16 10:20:13;;;;;;;;;;;2.20;99.90;;;;;;5037907;28;19913;-61
2024/01/16 10:22:39;;;;;;;;;;;2.30;99.90;;;;;;5023269;28;20007;-61
2024/01/16 10:25:04;;;;;;;;;;;2.30;99.90;;;;;;5023579;28;19925;-61
2024/01/16 10:27:31;;;;;;;;;;;2.30;99.90;;;;;;5023273;28;19973;-61
2024/01/16 10:29:57;;;;;;;;;;;2.30;99.90;;;;;;5023485;28;19949;-61
2024/01/16 10:32:29;;;;;;;;;;;2.40;99.90;;;;;;5023015;28;19914;-61
2024/01/16 10:35:21;;;;;;;;;;;2.40;99.90;;;;;;5023577;28;19924;-61
2024/01/16 10:37:47;;;;;;;;;;;2.40;99.90;;;;;;5016993;28;20297;-61
2024/01/16 10:40:17;;;;;;;;;;;2.40;99.90;;;;;;5023082;28;19917;-61
2024/01/16 10:42:43;;;;;;;;;;;2.40;99.90;;;;;;5038184;28;19997;-61
2024/01/16 10:45:15;;;;;;;;;;;2.40;99.90;;;;;;5038288;28;19920;-61
2024/01/16 10:47:42;;;;;;;;;;;2.50;99.90;;;;;;5004814;28;19932;-61
2024/01/16 10:50:09;;;;;;;;;;;2.40;99.90;;;;;;5022965;28;19913;-61
2024/01/16 10:52:35;;;;;;;;;;;2.50;99.90;;;;;;5022657;28;19913;-61
2024/01/16 10:55:04;;;;;;;;;;;2.50;99.90;;;;;;5022990;28;19914;-61
2024/01/16 10:57:31;;;;;;;;;;;2.50;99.90;;;;;;5022889;28;19939;-61
2024/01/16 11:00:08;;;;;;;;;;;2.50;99.90;;;;;;5023021;28;20386;-61
2024/01/16 11:03:03;;;;;;;;;;;2.50;99.90;;;;;;5022441;28;19981;-61
2024/01/16 11:05:31;;;;;;;;;;;2.50;99.90;;;;;;5055373;28;19978;-61
2024/01/16 11:07:58;;;;;;;;;;;2.60;99.90;;;;;;5023044;28;19910;-61
2024/01/16 11:10:24;;;;;;;;;;;2.50;99.90;;;;;;5021864;28;20410;-61
2024/01/16 11:12:51;;;;;;;;;;;2.50;99.90;;;;;;5022919;28;19988;-61
2024/01/16 11:15:16;;;;;;;;;;;2.50;99.90;;;;;;5022464;28;19916;-61
2024/01/16 11:17:44;;;;;;;;;;;2.50;99.90;;;;;;5037407;28;19917;-61
2024/01/16 11:20:11;;;;;;;;;;;2.50;99.90;;;;;;5003985;28;20000;-61
2024/01/16 11:22:41;;;;;;;;;;;2.50;99.90;;;;;;5004037;28;19921;-61
2024/01/16 11:25:18;;;;;;;;;;;2.50;99.90;;;;;;5004007;28;20319;-61
2024/01/16 11:27:44;;;;;;;;;;;2.50;99.90;;;;;;5021725;28;19924;-61
2024/01/16 11:30:13;;;;;;;;;;;2.50;99.90;;;;;;5021664;28;20024;-61
2024/01/16 11:32:44;;;;;;;;;;;2.50;99.90;;;;;;5021263;28;19919;-61
2024/01/16 11:35:11;;;;;;;;;;;2.50;99.90;;;;;;5022701;28;19917;-61
2024/01/16 11:37:39;;;;;;;;;;;2.50;99.90;;;;;;5022302;28;19917;-61
2024/01/16 11:40:16;;;;;;;;;;;2.50;99.90;;;;;;5022355;28;19917;-61
2024/01/16 11:42:42;;;;;;;;;;;2.50;99.90;;;;;;5022194;28;19928;-61
2024/01/16 11:45:29;;;;;;;;;;;2.50;99.90;;;;;;5022614;28;20378;-61
2024/01/16 11:48:21;;;;;;;;;;;2.60;99.90;;;;;;5015014;28;20057;-61
2024/01/16 11:50:46;;;;;;;;;;;2.60;99.90;;;;;;5006512;28;19920;-61
2024/01/16 11:53:33;;;;;;;;;;;2.60;99.90;;;;;;5004543;28;19909;-61
2024/01/16 11:56:07;;;;;;;;;;;2.60;99.90;;;;;;5015415;28;20397;-61
2024/01/16 11:58:59;;;;;;;;;;;2.50;99.90;;;;;;5029655;28;19913;-61
2024/01/16 12:01:26;;;;;;;;;;;2.50;99.90;;;;;;5010099;28;19913;-63
2024/01/16 12:04:04;;;;;;;;;;;2.50;99.90;;;;;;5023478;28;19964;-61
2024/01/16 12:06:30;;;;;;;;;;;2.50;99.90;;;;;;5022686;28;19913;-62
2024/01/16 12:09:10;;;;;;;;;;;2.60;99.90;;;;;;5022980;28;20385;-62
2024/01/16 12:11:35;;;;;;;;;;;2.60;99.90;;;;;;5036870;28;19924;-62
2024/01/16 12:14:01;;;;;;;;;;;2.60;99.90;;;;;;5021898;28;19917;-62
2024/01/16 12:16:27;;;;;;;;;;;2.60;99.90;;;;;;5021782;28;20231;-62
2024/01/16 12:19:03;;;;;;;;;;;2.60;99.90;;;;;;5017621;28;19914;-62
2024/01/16 12:21:29;;;;;;;;;;;2.60;99.90;;;;;;5021422;28;19913;-62
2024/01/16 12:23:54;;;;;;;;;;;2.60;99.90;;;;;;5021704;28;19917;-62
2024/01/16 12:26:21;;;;;;;;;;;2.60;99.90;;;;;;5022159;28;19936;-62
2024/01/16 12:28:50;;;;;;;;;;;2.70;99.90;;;;;;5021360;28;19952;-61
2024/01/16 12:31:18;;;;;;;;;;;2.70;99.90;;;;;;5021693;28;19992;-62
2024/01/16 12:33:43;;;;;;;;;;;2.70;99.90;;;;;;5021629;28;19917;-61
2024/01/16 12:36:10;;;;;;;;;;;2.70;99.90;;;;;;5021671;28;19909;-62
2024/01/16 12:38:36;;;;;;;;;;;2.70;99.90;;;;;;5021544;28;19914;-62
2024/01/16 12:41:01;;;;;;;;;;;2.60;99.90;;;;;;5003560;28;19932;-62
2024/01/16 12:43:27;;;;;;;;;;;2.60;99.90;;;;;;5021419;28;20465;-62
2024/01/16 12:45:56;;;;;;;;;;;2.60;99.90;;;;;;5025505;28;19914;-62
2024/01/16 12:48:23;;;;;;;;;;;2.60;99.90;;;;;;5025167;28;19965;-61
2024/01/16 12:50:48;;;;;;;;;;;2.70;99.90;;;;;;5015038;28;19917;-62
2024/01/16 12:53:16;;;;;;;;;;;2.70;99.90;;;;;;5024453;28;19913;-62
2024/01/16 12:55:42;;;;;;;;;;;2.60;99.90;;;;;;5024511;28;20017;-61
2024/01/16 12:58:17;;;;;;;;;;;2.70;99.90;;;;;;5024630;28;19986;-62
2024/01/16 13:00:46;;;;;;;;;;;2.70;99.90;;;;;;5024298;28;20666;-62
2024/01/16 13:03:18;;;;;;;;;;;2.70;99.90;;;;;;5024713;28;19913;-62
2024/01/16 13:05:44;;;;;;;;;;;2.70;99.90;;;;;;5024326;28;20563;-62
2024/01/16 13:08:16;;;;;;;;;;;2.70;99.90;;;;;;5024551;28;19913;-62
2024/01/16 13:10:42;;;;;;;;;;;2.70;99.90;;;;;;5006189;28;19909;-62
2024/01/16 13:13:21;;;;;;;;;;;2.70;99.90;;;;;;5024651;28;20259;-62
2024/01/16 13:15:47;;;;;;;;;;;2.70;99.90;;;;;;5024262;28;19917;-62
2024/01/16 13:18:22;;;;;;;;;;;2.60;99.90;;;;;;5024036;28;20498;-62
2024/01/16 13:20:51;;;;;;;;;;;2.60;99.90;;;;;;5023918;28;19995;-62
2024/01/16 13:23:17;;;;;;;;;;;2.60;99.90;;;;;;5024248;28;20237;-62
2024/01/16 13:25:44;;;;;;;;;;;2.70;99.90;;;;;;5024001;28;19910;-62
2024/01/16 13:28:09;;;;;;;;;;;2.70;99.90;;;;;;5023831;28;20411;-62
2024/01/16 13:30:35;;;;;;;;;;;2.70;99.90;;;;;;5038671;28;19921;-62
2024/01/16 13:33:01;;;;;;;;;;;2.70;99.90;;;;;;5023430;28;19913;-62
2024/01/16 13:35:27;;;;;;;;;;;2.70;99.90;;;;;;5023375;28;19952;-62
2024/01/16 13:37:52;;;;;;;;;;;2.70;99.90;;;;;;5024199;28;20290;-62
2024/01/16 13:40:18;;;;;;;;;;;2.70;99.90;;;;;;5023925;28;19956;-62
2024/01/16 13:42:44;;;;;;;;;;;2.70;99.90;;;;;;5023902;28;19921;-62
2024/01/16 13:45:10;;;;;;;;;;;2.70;99.90;;;;;;5024310;28;19982;-62
2024/01/16 13:47:40;;;;;;;;;;;2.70;99.90;;;;;;5023730;28;19917;-62
2024/01/16 13:50:08;;;;;;;;;;;2.70;99.90;;;;;;5023819;28;19957;-62
2024/01/16 13:52:34;;;;;;;;;;;2.80;99.90;;;;;;5023629;28;19914;-62
2024/01/16 13:55:03;;;;;;;;;;;2.80;99.90;;;;;;5023210;28;19931;-62
2024/01/16 13:57:29;;;;;;;;;;;2.80;99.90;;;;;;5023440;28;19917;-62
2024/01/16 13:59:54;;;;;;;;;;;2.80;99.90;;;;;;5023881;28;19924;-62
2024/01/16 14:02:20;;;;;;;;;;;2.80;99.90;;;;;;5023734;28;19973;-62
2024/01/16 14:04:45;;;;;;;;;;;2.80;99.90;;;;;;5038867;28;19917;-62
2024/01/16 14:07:11;;;;;;;;;;;2.90;99.90;;;;;;5026610;28;20004;-62
2024/01/16 14:09:36;;;;;;;;;;;2.90;99.90;;;;;;5023498;28;19913;-62
2024/01/16 14:12:02;;;;;;;;;;;2.90;99.90;;;;;;5023871;28;20630;-62
2024/01/16 14:14:27;;;;;;;;;;;2.90;99.90;;;;;;5023415;28;19921;-62
2024/01/16 14:16:54;;;;;;;;;;;2.90;99.90;;;;;;5023868;28;20270;-62
2024/01/16 14:19:20;;;;;;;;;;;2.90;99.90;;;;;;5003792;28;20546;-62
2024/01/16 14:21:46;;;;;;;;;;;2.90;99.90;;;;;;5018951;28;19917;-62
2024/01/16 14:24:12;;;;;;;;;;;2.90;99.90;;;;;;5022699;28;19913;-62
2024/01/16 14:26:38;;;;;;;;;;;2.80;99.90;;;;;;5022404;28;19995;-62